Time;durP1;ratioP1;P1;durP2;ratioP2;P2;SDS_P1;SDS_P2;PMS_P1;PMS_P2;Temp;Humidity;BMP_temperature;BMP_pressure;BME280_temperature;BME280_humidity;BME280_pressure;Samples;Min_cycle;Max_cycle;Signal;HPM_P1;HPM_P2
2023/01/20 00:02:17;;;;;;;3.60;1.93;;;1.30;99.90;;;;;;5081236;27;20760;-67
2023/01/20 00:04:45;;;;;;;4.20;2.03;;;1.30;99.90;;;;;;5089543;27;20312;-67
2023/01/20 00:07:12;;;;;;;2.47;1.57;;;1.30;99.90;;;;;;5099107;27;20358;-67
2023/01/20 00:09:38;;;;;;;9.60;2.70;;;1.30;99.90;;;;;;5098186;27;20224;-67
2023/01/20 00:12:06;;;;;;;5.07;1.87;;;1.30;99.90;;;;;;5069098;27;20311;-66
2023/01/20 00:14:32;;;;;;;5.03;1.90;;;1.20;99.90;;;;;;5092521;27;20314;-67
2023/01/20 00:16:59;;;;;;;4.63;2.07;;;1.20;99.90;;;;;;5086080;27;20294;-67
2023/01/20 00:19:27;;;;;;;5.10;2.00;;;1.20;99.90;;;;;;5096335;27;20242;-67
2023/01/20 00:21:55;;;;;;;5.03;2.30;;;1.20;99.90;;;;;;5087014;27;20291;-67
2023/01/20 00:24:22;;;;;;;5.03;2.10;;;1.20;99.90;;;;;;5096118;27;20221;-67
2023/01/20 00:26:48;;;;;;;2.77;2.03;;;1.20;99.90;;;;;;5066879;27;20979;-67
2023/01/20 00:29:15;;;;;;;9.17;2.30;;;1.20;99.90;;;;;;5097466;27;20749;-67
2023/01/20 00:31:42;;;;;;;2.57;2.00;;;1.20;99.90;;;;;;5095692;27;20252;-67
2023/01/20 00:34:11;;;;;;;5.70;2.13;;;1.10;99.90;;;;;;5069827;27;20303;-67
2023/01/20 00:36:37;;;;;;;9.20;2.57;;;1.00;99.90;;;;;;5085008;27;20404;-67
2023/01/20 00:39:06;;;;;;;5.10;2.40;;;1.00;99.90;;;;;;5089620;27;20872;-67
2023/01/20 00:41:33;;;;;;;3.23;2.07;;;1.00;99.90;;;;;;5072041;27;20216;-67
2023/01/20 00:44:00;;;;;;;7.27;2.37;;;0.90;99.90;;;;;;5069911;27;20320;-67
2023/01/20 00:46:27;;;;;;;6.33;2.40;;;1.00;99.90;;;;;;5091723;27;20202;-67
2023/01/20 00:48:54;;;;;;;2.77;2.23;;;1.00;99.90;;;;;;5085565;27;20335;-67
2023/01/20 00:51:21;;;;;;;6.87;2.63;;;0.90;99.90;;;;;;5085128;27;20300;-67
2023/01/20 00:53:47;;;;;;;4.83;2.70;;;1.00;99.90;;;;;;5099509;27;20287;-67
2023/01/20 00:56:16;;;;;;;4.23;2.47;;;1.00;99.90;;;;;;5085536;27;20295;-67
2023/01/20 00:58:44;;;;;;;4.17;2.83;;;1.00;99.90;;;;;;5060424;27;20409;-67
2023/01/20 01:01:11;;;;;;;3.73;2.63;;;1.00;99.90;;;;;;5090052;27;20226;-67
2023/01/20 01:03:38;;;;;;;3.97;2.73;;;1.00;99.90;;;;;;5081113;27;20334;-67
2023/01/20 01:06:10;;;;;;;7.13;3.37;;;1.00;99.90;;;;;;5097690;27;20219;-67
2023/01/20 01:08:37;;;;;;;7.27;3.63;;;1.00;99.90;;;;;;5084958;27;20927;-67
2023/01/20 01:11:05;;;;;;;11.43;4.40;;;1.10;99.90;;;;;;5090644;27;20733;-66
2023/01/20 01:13:34;;;;;;;7.07;3.90;;;1.10;99.90;;;;;;5086074;27;21514;-66
2023/01/20 01:16:01;;;;;;;9.13;5.13;;;1.10;99.90;;;;;;5062360;27;20369;-67
2023/01/20 01:18:28;;;;;;;11.33;5.20;;;1.10;99.90;;;;;;5087513;27;20318;-67
2023/01/20 01:20:55;;;;;;;8.67;5.57;;;1.00;99.90;;;;;;5098003;27;20228;-67
2023/01/20 01:23:22;;;;;;;8.37;5.77;;;1.00;99.90;;;;;;5083426;27;20283;-67
2023/01/20 01:25:49;;;;;;;12.83;6.33;;;1.00;99.90;;;;;;5078770;27;20347;-67
2023/01/20 01:28:15;;;;;;;11.47;6.63;;;1.00;99.90;;;;;;5087334;27;20301;-67
2023/01/20 01:30:43;;;;;;;12.93;7.47;;;1.00;99.90;;;;;;5064581;27;20299;-67
2023/01/20 01:33:10;;;;;;;21.30;8.10;;;0.90;99.90;;;;;;5090489;27;20302;-67
2023/01/20 01:35:37;;;;;;;13.03;8.37;;;1.00;99.90;;;;;;5083349;27;20327;-67
2023/01/20 01:38:04;;;;;;;12.00;8.07;;;1.00;99.90;;;;;;5087441;27;20327;-67
2023/01/20 01:40:31;;;;;;;17.83;8.93;;;1.00;99.90;;;;;;5099840;27;20283;-66
2023/01/20 01:42:58;;;;;;;15.13;8.33;;;1.00;99.90;;;;;;5085282;27;20301;-67
2023/01/20 01:45:27;;;;;;;15.53;9.30;;;1.00;99.90;;;;;;5064084;27;20344;-66
2023/01/20 01:48:00;;;;;;;21.47;8.57;;;1.00;99.90;;;;;;5088793;27;20329;-67
2023/01/20 01:50:32;;;;;;;19.77;10.17;;;1.00;99.90;;;;;;5086170;27;20291;-66
2023/01/20 01:53:00;;;;;;;15.77;10.07;;;1.00;99.90;;;;;;5087319;27;20204;-67
2023/01/20 01:55:30;;;;;;;19.43;11.63;;;1.10;99.90;;;;;;5100418;27;20284;-66
2023/01/20 01:57:59;;;;;;;20.17;11.23;;;1.00;99.90;;;;;;5099715;27;20303;-67
2023/01/20 02:00:26;;;;;;;19.93;12.03;;;1.00;99.90;;;;;;5081437;27;20311;-66
2023/01/20 02:02:54;;;;;;;18.57;11.27;;;1.00;99.90;;;;;;5067650;27;21836;-67
2023/01/20 02:05:25;;;;;;;19.30;11.37;;;1.00;99.90;;;;;;5088756;27;20271;-67
2023/01/20 02:07:52;;;;;;;17.60;11.03;;;0.90;99.90;;;;;;5082072;27;20390;-66
2023/01/20 02:10:19;;;;;;;20.80;11.53;;;0.90;99.90;;;;;;5087852;27;20257;-67
2023/01/20 02:12:50;;;;;;;25.57;12.63;;;0.90;99.90;;;;;;5089328;27;20308;-67
2023/01/20 02:15:21;;;;;;;21.17;12.90;;;0.90;99.90;;;;;;5086079;27;20254;-67
2023/01/20 02:18:02;;;;;;;19.80;11.97;;;0.80;99.90;;;;;;5053225;27;20212;-67
2023/01/20 02:21:01;;;;;;;22.37;12.47;;;0.80;99.90;;;;;;5093959;27;20695;-66
2023/01/20 02:23:54;;;;;;;22.57;12.83;;;0.90;99.90;;;;;;5008317;27;20737;-66
2023/01/20 02:26:39;;;;;;;21.63;11.70;;;0.90;99.90;;;;;;5087103;27;20264;-66
2023/01/20 02:29:54;;;;;;;20.30;11.17;;;0.90;99.90;;;;;;5092514;27;20220;-67
2023/01/20 02:32:36;;;;;;;20.30;11.10;;;1.00;99.90;;;;;;5085808;27;20285;-66
2023/01/20 02:35:10;;;;;;;23.10;12.17;;;1.00;99.90;;;;;;5083104;27;20322;-67
2023/01/20 02:37:45;;;;;;;22.20;11.80;;;1.00;99.90;;;;;;5081540;27;23824;-67
2023/01/20 02:40:22;;;;;;;26.13;12.00;;;1.00;99.90;;;;;;5088111;27;20305;-67
2023/01/20 02:42:59;;;;;;;18.90;11.03;;;1.00;99.90;;;;;;5077424;27;20327;-67
2023/01/20 02:45:32;;;;;;;23.77;11.97;;;1.00;99.90;;;;;;5096676;27;21440;-66
2023/01/20 02:48:07;;;;;;;20.13;11.53;;;1.00;99.90;;;;;;5095549;27;20319;-67
2023/01/20 02:50:40;;;;;;;23.90;11.83;;;1.00;99.90;;;;;;5063538;27;20357;-66
2023/01/20 02:53:09;;;;;;;23.13;11.43;;;1.10;99.90;;;;;;5084455;27;20289;-66
2023/01/20 02:55:39;;;;;;;19.40;11.10;;;1.10;99.90;;;;;;5087538;27;20298;-67
2023/01/20 02:58:11;;;;;;;19.27;11.40;;;1.10;99.90;;;;;;5077339;27;20618;-67
2023/01/20 03:00:42;;;;;;;25.30;11.77;;;1.10;99.90;;;;;;5096084;27;20272;-66
2023/01/20 03:03:15;;;;;;;21.57;11.43;;;1.10;99.90;;;;;;5092112;27;20228;-66
2023/01/20 03:05:47;;;;;;;20.60;10.27;;;1.10;99.90;;;;;;5058827;27;20204;-67
2023/01/20 03:08:15;;;;;;;23.10;11.57;;;1.10;99.90;;;;;;5083103;27;20317;-67
2023/01/20 03:10:45;;;;;;;22.37;12.13;;;1.10;99.90;;;;;;5090940;27;21060;-67
2023/01/20 03:13:19;;;;;;;28.27;11.23;;;1.10;99.90;;;;;;5081443;27;20275;-67
2023/01/20 03:15:53;;;;;;;18.30;9.87;;;1.20;99.90;;;;;;5085203;27;20751;-66
2023/01/20 03:18:23;;;;;;;21.23;10.77;;;1.20;99.90;;;;;;5095653;27;21014;-66
2023/01/20 03:20:49;;;;;;;20.20;11.10;;;1.20;99.90;;;;;;5054831;27;20576;-66
2023/01/20 03:23:16;;;;;;;16.23;9.50;;;1.20;99.90;;;;;;5084939;27;20317;-67
2023/01/20 03:25:45;;;;;;;20.17;10.00;;;1.20;99.90;;;;;;5094277;27;20296;-66
2023/01/20 03:28:13;;;;;;;23.30;12.03;;;1.20;99.90;;;;;;5074123;27;20247;-67
2023/01/20 03:30:40;;;;;;;20.20;10.87;;;1.20;99.90;;;;;;5078250;27;20353;-66
2023/01/20 03:33:08;;;;;;;20.60;11.73;;;1.30;99.90;;;;;;5098827;27;20282;-67
2023/01/20 03:35:37;;;;;;;19.37;10.40;;;1.30;99.90;;;;;;5071428;27;20783;-67
2023/01/20 03:38:04;;;;;;;18.00;10.10;;;1.30;99.90;;;;;;5086156;27;20236;-67
2023/01/20 03:40:36;;;;;;;21.37;10.23;;;1.30;99.90;;;;;;5097754;27;20292;-67
2023/01/20 03:43:10;;;;;;;18.37;9.80;;;1.30;99.90;;;;;;5077746;27;20227;-67
2023/01/20 03:45:46;;;;;;;21.13;10.30;;;1.40;99.90;;;;;;5092358;27;20278;-66
2023/01/20 03:48:19;;;;;;;20.17;9.93;;;1.40;99.90;;;;;;5095111;27;20320;-66
2023/01/20 03:50:53;;;;;;;17.43;10.03;;;1.30;99.90;;;;;;5069807;27;21288;-67
2023/01/20 03:53:30;;;;;;;23.70;10.43;;;1.30;99.90;;;;;;5090502;27;20283;-67
2023/01/20 03:56:03;;;;;;;20.90;11.03;;;1.30;99.90;;;;;;5102547;27;20222;-66
2023/01/20 03:58:33;;;;;;;17.27;9.03;;;1.40;99.90;;;;;;5078382;27;20227;-67
2023/01/20 04:01:01;;;;;;;24.63;10.67;;;1.30;99.90;;;;;;5090607;27;20286;-67
2023/01/20 04:03:31;;;;;;;16.53;9.23;;;1.40;99.90;;;;;;5098376;27;20223;-67
2023/01/20 04:06:03;;;;;;;20.13;10.10;;;1.40;99.90;;;;;;5067637;27;20209;-67
2023/01/20 04:08:33;;;;;;;15.83;8.73;;;1.40;99.90;;;;;;5094383;27;20252;-66
2023/01/20 04:11:04;;;;;;;16.63;9.90;;;1.50;99.90;;;;;;5093067;27;20312;-66
2023/01/20 04:13:31;;;;;;;24.17;10.23;;;1.40;99.90;;;;;;5093522;27;20289;-66
2023/01/20 04:16:00;;;;;;;17.17;9.33;;;1.30;99.90;;;;;;5089074;27;20319;-67
2023/01/20 04:18:27;;;;;;;17.60;9.43;;;1.40;99.90;;;;;;5098532;27;20283;-67
2023/01/20 04:20:58;;;;;;;19.07;9.63;;;1.30;99.90;;;;;;5069881;27;20901;-67
2023/01/20 04:23:31;;;;;;;13.87;8.10;;;1.40;99.90;;;;;;5101139;27;20287;-66
2023/01/20 04:25:58;;;;;;;19.90;8.37;;;1.40;99.90;;;;;;5089104;27;20279;-67
2023/01/20 04:28:25;;;;;;;11.90;7.93;;;1.40;99.90;;;;;;5098610;27;20283;-67
2023/01/20 04:30:52;;;;;;;14.40;8.47;;;1.40;99.90;;;;;;5072717;27;20199;-67
2023/01/20 04:33:19;;;;;;;18.43;8.03;;;1.40;99.90;;;;;;5095942;27;20287;-67
2023/01/20 04:35:46;;;;;;;18.57;8.80;;;1.40;99.90;;;;;;5065220;27;20309;-67
2023/01/20 04:38:13;;;;;;;13.50;7.80;;;1.40;99.90;;;;;;5093933;27;21018;-67
2023/01/20 04:40:41;;;;;;;14.03;7.87;;;1.40;99.90;;;;;;5084773;27;23429;-67
2023/01/20 04:43:08;;;;;;;18.00;8.30;;;1.40;99.90;;;;;;5100138;27;20250;-67
2023/01/20 04:45:36;;;;;;;15.20;7.77;;;1.30;99.90;;;;;;5079315;27;20236;-67
2023/01/20 04:48:06;;;;;;;17.30;8.27;;;1.30;99.90;;;;;;5081115;27;20341;-66
2023/01/20 04:50:33;;;;;;;13.73;8.03;;;1.40;99.90;;;;;;5092099;27;20291;-67
2023/01/20 04:52:59;;;;;;;16.37;8.07;;;1.40;99.90;;;;;;5052637;27;20265;-66
2023/01/20 04:55:26;;;;;;;13.90;8.23;;;1.40;99.90;;;;;;5083137;27;20296;-67
2023/01/20 04:57:55;;;;;;;15.10;7.73;;;1.30;99.90;;;;;;5097763;27;20217;-67
2023/01/20 05:00:22;;;;;;;12.60;7.77;;;1.40;99.90;;;;;;5082403;27;20354;-66
2023/01/20 05:02:48;;;;;;;13.33;7.70;;;1.40;99.90;;;;;;5077174;27;21075;-67
2023/01/20 05:05:15;;;;;;;13.17;7.33;;;1.40;99.90;;;;;;5095092;27;20327;-66
2023/01/20 05:07:42;;;;;;;16.87;7.20;;;1.40;99.90;;;;;;5050195;27;20313;-67
2023/01/20 05:10:10;;;;;;;13.10;7.70;;;1.40;99.90;;;;;;5101745;27;20200;-66
2023/01/20 05:12:37;;;;;;;16.97;8.43;;;1.40;99.90;;;;;;5091157;27;20225;-66
2023/01/20 05:15:06;;;;;;;13.83;7.87;;;1.40;99.90;;;;;;5095184;27;21103;-66
2023/01/20 05:17:33;;;;;;;13.47;7.43;;;1.40;99.90;;;;;;5067170;27;20424;-67
2023/01/20 05:20:00;;;;;;;12.37;6.90;;;1.40;99.90;;;;;;5099948;27;20205;-66
2023/01/20 05:22:27;;;;;;;12.70;7.63;;;1.50;99.90;;;;;;5055050;27;20202;-66
2023/01/20 05:24:54;;;;;;;12.53;8.47;;;1.40;99.90;;;;;;5083436;27;20798;-67
2023/01/20 05:27:21;;;;;;;13.30;7.50;;;1.40;99.90;;;;;;5077433;27;21014;-66
2023/01/20 05:29:47;;;;;;;11.17;7.53;;;1.50;99.90;;;;;;5077903;27;20346;-66
2023/01/20 05:32:16;;;;;;;17.13;8.27;;;1.40;99.90;;;;;;5078833;27;20660;-67
2023/01/20 05:34:42;;;;;;;13.87;8.40;;;1.40;99.90;;;;;;5081809;27;20303;-66
2023/01/20 05:37:10;;;;;;;17.47;8.47;;;1.40;99.90;;;;;;5078128;27;21136;-67
2023/01/20 05:39:37;;;;;;;13.30;8.37;;;1.40;99.90;;;;;;5058457;27;20282;-67
2023/01/20 05:42:04;;;;;;;12.73;7.97;;;1.40;99.90;;;;;;5084901;27;20245;-67
2023/01/20 05:44:30;;;;;;;11.20;7.80;;;1.40;99.90;;;;;;5082969;27;20310;-66
2023/01/20 05:46:57;;;;;;;13.80;8.27;;;1.40;99.90;;;;;;5087141;27;20682;-66
2023/01/20 05:49:27;;;;;;;13.23;7.30;;;1.40;99.90;;;;;;5074663;27;20328;-67
2023/01/20 05:51:54;;;;;;;12.63;8.33;;;1.40;99.90;;;;;;5093438;27;20371;-67
2023/01/20 05:54:21;;;;;;;15.40;8.03;;;1.40;99.90;;;;;;5037390;27;20221;-67
2023/01/20 05:56:48;;;;;;;15.87;8.00;;;1.50;99.90;;;;;;5078201;27;20304;-67
2023/01/20 05:59:15;;;;;;;15.03;8.37;;;1.40;99.90;;;;;;5092151;27;20214;-66
2023/01/20 06:01:42;;;;;;;16.37;8.93;;;1.40;99.90;;;;;;5090847;27;20300;-67
2023/01/20 06:04:09;;;;;;;14.83;8.57;;;1.50;99.90;;;;;;5082858;27;20243;-67
2023/01/20 06:06:38;;;;;;;16.00;8.47;;;1.40;99.90;;;;;;5078410;27;20315;-66
2023/01/20 06:09:05;;;;;;;13.10;7.90;;;1.40;99.90;;;;;;5036311;27;20230;-66
2023/01/20 06:11:32;;;;;;;14.90;7.67;;;1.50;99.90;;;;;;5087614;27;20241;-67
2023/01/20 06:13:59;;;;;;;14.83;7.63;;;1.50;99.90;;;;;;5081629;27;20417;-66
2023/01/20 06:16:25;;;;;;;14.03;8.03;;;1.50;99.90;;;;;;5087175;27;20328;-67
2023/01/20 06:18:52;;;;;;;13.77;8.10;;;1.50;99.90;;;;;;5080636;27;21147;-67
2023/01/20 06:21:19;;;;;;;16.30;7.80;;;1.50;99.90;;;;;;5085171;27;20325;-66
2023/01/20 06:23:47;;;;;;;13.43;8.13;;;1.50;99.90;;;;;;5085449;27;20338;-67
2023/01/20 06:26:14;;;;;;;13.17;7.17;;;1.50;99.90;;;;;;5067160;27;20211;-67
2023/01/20 06:28:42;;;;;;;16.33;7.97;;;1.50;99.90;;;;;;5087675;27;20348;-67
2023/01/20 06:31:10;;;;;;;16.70;8.93;;;1.50;99.90;;;;;;5092103;27;20327;-66
2023/01/20 06:33:37;;;;;;;17.13;9.33;;;1.50;99.90;;;;;;5099365;27;20305;-66
2023/01/20 06:36:06;;;;;;;15.97;9.33;;;1.50;99.90;;;;;;5087782;27;20337;-66
2023/01/20 06:38:35;;;;;;;20.13;9.90;;;1.50;99.90;;;;;;5088535;27;20234;-66
2023/01/20 06:41:05;;;;;;;16.63;8.90;;;1.60;99.90;;;;;;5064025;27;20318;-66
2023/01/20 06:43:33;;;;;;;19.60;9.40;;;1.60;99.90;;;;;;5095820;27;20766;-66
2023/01/20 06:46:01;;;;;;;20.43;9.43;;;1.60;99.90;;;;;;5085073;27;20204;-66
2023/01/20 06:48:28;;;;;;;19.93;10.20;;;1.50;99.90;;;;;;5096853;27;20226;-66
2023/01/20 06:51:00;;;;;;;16.47;9.53;;;1.60;99.90;;;;;;5093036;27;21008;-66
2023/01/20 06:53:27;;;;;;;18.87;9.90;;;1.50;99.90;;;;;;5084884;27;21228;-67
2023/01/20 06:55:55;;;;;;;16.33;9.63;;;1.60;99.90;;;;;;5092000;27;20636;-67
2023/01/20 06:58:24;;;;;;;17.47;9.77;;;1.50;99.90;;;;;;5084846;27;20210;-67
2023/01/20 07:00:52;;;;;;;19.70;9.87;;;1.60;99.90;;;;;;5084625;27;20786;-66
2023/01/20 07:03:18;;;;;;;19.70;9.00;;;1.60;99.90;;;;;;5090137;27;20293;-67
2023/01/20 07:05:54;;;;;;;15.87;9.50;;;1.50;99.90;;;;;;5093586;27;20291;-66
2023/01/20 07:08:21;;;;;;;17.57;9.60;;;1.50;99.90;;;;;;5073736;27;20648;-66
2023/01/20 07:10:48;;;;;;;20.97;9.90;;;1.50;99.90;;;;;;5099783;27;20211;-66
2023/01/20 07:13:15;;;;;;;18.50;10.47;;;1.50;99.90;;;;;;5073182;27;20212;-66
2023/01/20 07:15:43;;;;;;;19.00;10.57;;;1.50;99.90;;;;;;5090247;27;20376;-68
2023/01/20 07:18:10;;;;;;;16.43;8.73;;;1.50;99.90;;;;;;5102734;27;20222;-66
2023/01/20 07:20:37;;;;;;;17.27;9.80;;;1.60;99.90;;;;;;5096429;27;20292;-68
2023/01/20 07:23:05;;;;;;;20.10;10.27;;;1.50;99.90;;;;;;5095022;27;20200;-66
2023/01/20 07:25:32;;;;;;;15.73;9.23;;;1.60;99.90;;;;;;5087061;27;20225;-66
2023/01/20 07:27:58;;;;;;;20.83;10.17;;;1.60;99.90;;;;;;5072441;27;20309;-66
2023/01/20 07:30:26;;;;;;;16.40;9.00;;;1.60;99.90;;;;;;5085843;27;20287;-64
2023/01/20 07:32:54;;;;;;;14.63;8.37;;;1.70;99.90;;;;;;5087232;27;20587;-65
2023/01/20 07:35:21;;;;;;;14.63;8.57;;;1.70;99.90;;;;;;5093843;27;20204;-65
2023/01/20 07:37:48;;;;;;;18.73;8.97;;;1.70;99.90;;;;;;5082535;27;20303;-65
2023/01/20 07:40:15;;;;;;;14.03;8.40;;;1.60;99.90;;;;;;5085847;27;20299;-65
2023/01/20 07:42:42;;;;;;;14.73;9.43;;;1.70;99.90;;;;;;5097333;27;20277;-65
2023/01/20 07:45:09;;;;;;;15.87;8.87;;;1.70;99.90;;;;;;5067335;27;20214;-67
2023/01/20 07:47:36;;;;;;;18.00;9.37;;;1.70;99.90;;;;;;5074387;27;20206;-66
2023/01/20 07:50:05;;;;;;;16.10;9.50;;;1.70;99.90;;;;;;5103780;27;20306;-67
2023/01/20 07:52:32;;;;;;;17.30;9.23;;;1.70;99.90;;;;;;5087987;27;20703;-67
2023/01/20 07:54:58;;;;;;;20.90;9.50;;;1.70;99.90;;;;;;5090413;27;20308;-67
2023/01/20 07:57:25;;;;;;;15.57;9.07;;;1.70;99.90;;;;;;5103257;27;20276;-66
2023/01/20 07:59:52;;;;;;;17.80;9.83;;;1.60;99.90;;;;;;5068842;27;20210;-67
2023/01/20 08:02:19;;;;;;;15.00;8.50;;;1.70;99.90;;;;;;5090896;27;20293;-67
2023/01/20 08:04:46;;;;;;;18.47;9.33;;;1.60;99.90;;;;;;5086573;27;20233;-67
2023/01/20 08:07:14;;;;;;;20.27;9.67;;;1.60;99.90;;;;;;5103374;27;20313;-66
2023/01/20 08:09:42;;;;;;;21.23;10.17;;;1.60;99.90;;;;;;5078673;27;20225;-67
2023/01/20 08:12:09;;;;;;;17.63;9.57;;;1.60;99.90;;;;;;5087618;27;20314;-67
2023/01/20 08:14:36;;;;;;;20.93;10.73;;;1.60;99.90;;;;;;5060645;27;27521;-68
2023/01/20 08:17:03;;;;;;;20.67;9.47;;;1.60;99.90;;;;;;5084049;27;20296;-67
2023/01/20 08:19:30;;;;;;;19.93;10.67;;;1.70;99.90;;;;;;5085485;27;20260;-67
2023/01/20 08:21:56;;;;;;;20.90;10.70;;;1.60;99.90;;;;;;5102844;27;20206;-67
2023/01/20 08:24:25;;;;;;;20.20;10.50;;;1.60;99.90;;;;;;5080041;27;20294;-67
2023/01/20 08:26:52;;;;;;;18.47;11.30;;;1.60;99.90;;;;;;5087260;27;20871;-66
2023/01/20 08:29:19;;;;;;;20.73;11.83;;;1.60;99.90;;;;;;5080446;27;21121;-68
2023/01/20 08:31:45;;;;;;;23.50;11.33;;;1.60;99.90;;;;;;5067328;27;20762;-67
2023/01/20 08:34:13;;;;;;;28.50;11.83;;;1.60;99.90;;;;;;5090169;27;20233;-67
2023/01/20 08:36:41;;;;;;;20.90;11.73;;;1.70;99.90;;;;;;5096395;27;20202;-67
2023/01/20 08:39:10;;;;;;;22.60;12.07;;;1.70;99.90;;;;;;5086685;27;20292;-67
2023/01/20 08:41:41;;;;;;;21.47;11.10;;;1.70;99.90;;;;;;5081398;27;21380;-67
2023/01/20 08:44:10;;;;;;;20.67;11.83;;;1.70;99.90;;;;;;5100832;27;20276;-67
2023/01/20 08:46:38;;;;;;;24.90;11.80;;;1.70;99.90;;;;;;5056355;27;20217;-67
2023/01/20 08:49:06;;;;;;;21.10;12.00;;;1.70;99.90;;;;;;5094092;27;20209;-67
2023/01/20 08:51:33;;;;;;;16.73;10.60;;;1.80;99.90;;;;;;5091310;27;20221;-67
2023/01/20 08:54:00;;;;;;;18.47;10.03;;;1.80;99.90;;;;;;5080087;27;20302;-68
2023/01/20 08:56:28;;;;;;;18.40;10.37;;;1.80;99.90;;;;;;5086413;27;20376;-67
2023/01/20 08:58:58;;;;;;;20.33;10.77;;;1.80;99.90;;;;;;5097755;27;20205;-66
2023/01/20 09:01:27;;;;;;;18.17;10.20;;;1.70;99.90;;;;;;5072887;27;20448;-66
2023/01/20 09:03:55;;;;;;;17.60;9.27;;;1.80;99.90;;;;;;5085065;27;20310;-67
2023/01/20 09:06:23;;;;;;;22.67;10.67;;;1.80;99.90;;;;;;5076167;27;20227;-69
2023/01/20 09:08:51;;;;;;;18.57;9.63;;;1.80;99.90;;;;;;5084760;27;20293;-68
2023/01/20 09:11:21;;;;;;;19.73;10.60;;;1.80;99.90;;;;;;5096179;27;20635;-67
2023/01/20 09:13:48;;;;;;;20.97;10.50;;;1.80;99.90;;;;;;5097311;27;21128;-67
2023/01/20 09:16:18;;;;;;;17.47;9.67;;;1.80;99.90;;;;;;5091711;27;20250;-68
2023/01/20 09:18:45;;;;;;;19.00;10.47;;;1.80;99.90;;;;;;5078248;27;20276;-68
2023/01/20 09:21:12;;;;;;;20.00;9.97;;;1.80;99.90;;;;;;5089245;27;20327;-68
2023/01/20 09:23:41;;;;;;;17.63;9.80;;;1.90;99.90;;;;;;5068332;27;20257;-68
2023/01/20 09:26:09;;;;;;;22.23;11.30;;;1.90;99.90;;;;;;5092060;27;20218;-67
2023/01/20 09:28:36;;;;;;;21.50;11.43;;;2.00;99.90;;;;;;5094149;27;20300;-67
2023/01/20 09:31:05;;;;;;;19.20;10.97;;;1.90;99.90;;;;;;5095185;27;20351;-67
2023/01/20 09:33:37;;;;;;;20.60;11.37;;;2.00;99.90;;;;;;5053840;27;20802;-68
2023/01/20 09:36:05;;;;;;;24.87;12.27;;;2.00;99.90;;;;;;5088705;27;21172;-67
2023/01/20 09:44:29;;;;;;;17.50;10.70;;;2.00;99.90;;;;;;5092533;27;20783;-67
2023/01/20 09:47:21;;;;;;;18.63;9.53;;;2.10;99.90;;;;;;5066269;27;22861;-68
2023/01/20 09:53:06;;;;;;;21.93;10.90;;;2.20;99.90;;;;;;5070821;27;20922;-68
2023/01/20 09:55:48;;;;;;;19.10;10.17;;;2.20;99.90;;;;;;5088852;27;20203;-66
2023/01/20 09:58:25;;;;;;;18.00;10.50;;;2.20;99.90;;;;;;5103854;27;20333;-67
2023/01/20 10:00:59;;;;;;;21.00;10.57;;;2.20;99.90;;;;;;5094924;27;20291;-68
2023/01/20 10:03:35;;;;;;;17.50;10.20;;;2.30;99.90;;;;;;5069161;27;20348;-67
2023/01/20 10:06:08;;;;;;;24.40;11.87;;;2.30;99.90;;;;;;5080150;27;20207;-68
2023/01/20 10:08:43;;;;;;;20.67;11.27;;;2.30;99.90;;;;;;5081168;27;20213;-67
2023/01/20 10:11:14;;;;;;;19.63;11.50;;;2.40;99.90;;;;;;5088744;27;20336;-67
2023/01/20 10:13:50;;;;;;;21.63;10.93;;;2.50;99.90;;;;;;5095585;27;20307;-67
2023/01/20 10:16:25;;;;;;;18.47;10.80;;;2.50;99.90;;;;;;5094121;27;20568;-67
2023/01/20 10:18:57;;;;;;;22.67;11.40;;;2.50;99.90;;;;;;5068135;27;20286;-68
2023/01/20 10:21:32;;;;;;;19.03;10.80;;;2.60;99.90;;;;;;5079748;27;20207;-68
2023/01/20 10:24:07;;;;;;;20.90;10.83;;;2.60;99.90;;;;;;5088454;27;20288;-67
2023/01/20 10:26:42;;;;;;;19.53;9.90;;;2.60;99.90;;;;;;5062793;22;20262;-67
2023/01/20 10:29:16;;;;;;;17.37;10.43;;;2.60;99.90;;;;;;5049378;28;20211;-67
2023/01/20 10:31:47;;;;;;;19.17;11.00;;;2.60;99.90;;;;;;5038994;28;20297;-68
2023/01/20 10:34:18;;;;;;;19.03;11.17;;;2.70;99.90;;;;;;5025474;28;20345;-68
2023/01/20 10:36:54;;;;;;;19.70;10.67;;;2.60;99.90;;;;;;5034441;28;21509;-67
2023/01/20 10:39:28;;;;;;;18.73;10.93;;;2.60;99.90;;;;;;5043910;28;20246;-67
2023/01/20 10:42:00;;;;;;;20.27;10.03;;;2.60;99.90;;;;;;5053624;28;21117;-67
2023/01/20 10:44:27;;;;;;;19.20;11.50;;;2.60;99.90;;;;;;5058721;28;20286;-67
2023/01/20 10:47:11;;;;;;;17.47;11.50;;;2.60;99.90;;;;;;5059164;28;20211;-68
2023/01/20 10:50:11;;;;;;;24.10;11.93;;;2.60;99.90;;;;;;5019977;28;20204;-68
2023/01/20 10:53:00;;;;;;;20.97;11.77;;;2.60;99.90;;;;;;5050808;28;21451;-68
2023/01/20 10:55:38;;;;;;;22.33;11.63;;;2.50;99.90;;;;;;5054144;28;20320;-67
2023/01/20 10:58:14;;;;;;;23.23;11.93;;;2.50;99.90;;;;;;5048272;28;20298;-67
2023/01/20 11:00:42;;;;;;;21.47;11.70;;;3.10;99.90;;;;;;5046345;28;22165;-68
2023/01/20 11:03:15;;;;;;;26.27;13.27;;;2.50;99.90;;;;;;5045939;28;20212;-68
2023/01/20 11:05:42;;;;;;;23.27;11.90;;;2.50;99.90;;;;;;5014520;28;20253;-68
2023/01/20 11:08:16;;;;;;;20.20;12.27;;;2.50;99.90;;;;;;5049599;28;20340;-68
2023/01/20 11:10:43;;;;;;;22.60;11.93;;;2.50;99.90;;;;;;5050891;28;20236;-68
2023/01/20 11:13:11;;;;;;;20.20;11.17;;;2.50;99.90;;;;;;5041428;28;20319;-68
2023/01/20 11:18:58;;;;;;;18.57;10.90;;;2.60;99.90;;;;;;5047707;22;20245;-67
2023/01/20 11:21:27;;;;;;;19.63;11.27;;;2.60;99.90;;;;;;4995004;28;20311;-67
2023/01/20 11:23:57;;;;;;;21.20;11.77;;;2.60;99.90;;;;;;5051648;28;20236;-68
2023/01/20 11:26:26;;;;;;;18.70;11.50;;;2.60;99.90;;;;;;5044160;28;20219;-67
2023/01/20 11:28:55;;;;;;;20.43;11.37;;;2.60;99.90;;;;;;5043522;28;20298;-68
2023/01/20 11:31:35;;;;;;;19.73;10.00;;;2.70;99.90;;;;;;5053300;28;20307;-68
2023/01/20 11:34:03;;;;;;;18.47;10.67;;;2.70;99.90;;;;;;5048143;28;20284;-67
2023/01/20 11:36:30;;;;;;;23.37;10.67;;;2.60;99.90;;;;;;5027593;28;20221;-66
2023/01/20 11:38:58;;;;;;;16.37;10.03;;;2.70;99.90;;;;;;5044355;28;20928;-67
2023/01/20 11:41:27;;;;;;;20.63;10.60;;;2.70;99.90;;;;;;5057275;28;20307;-67
2023/01/20 11:43:55;;;;;;;21.97;11.60;;;2.70;99.90;;;;;;5033420;28;20341;-67
2023/01/20 11:46:26;;;;;;;20.23;11.40;;;2.70;99.90;;;;;;5058406;28;20222;-66
2023/01/20 11:49:12;;;;;;;22.93;11.17;;;2.70;99.90;;;;;;5056411;28;20337;-66
2023/01/20 11:51:50;;;;;;;16.53;10.17;;;2.80;99.90;;;;;;5034152;28;20365;-67
2023/01/20 11:54:20;;;;;;;16.43;9.97;;;2.80;99.90;;;;;;5039179;28;20226;-67
2023/01/20 11:56:51;;;;;;;16.90;9.63;;;2.80;99.90;;;;;;5048151;28;20358;-67
2023/01/20 11:59:25;;;;;;;15.53;9.00;;;2.70;99.90;;;;;;5030319;28;20302;-66
2023/01/20 12:01:57;;;;;;;19.77;10.30;;;2.80;99.90;;;;;;5045572;28;20211;-67
2023/01/20 12:04:44;;;;;;;19.57;9.67;;;2.70;99.90;;;;;;5052658;28;20224;-67
2023/01/20 12:07:15;;;;;;;15.50;9.07;;;2.80;99.90;;;;;;5035727;28;20212;-66
2023/01/20 12:09:46;;;;;;;18.77;9.27;;;2.70;99.90;;;;;;5052222;28;20658;-66
2023/01/20 12:12:20;;;;;;;14.50;9.10;;;2.70;99.90;;;;;;5051300;28;20831;-67
2023/01/20 12:14:49;;;;;;;18.00;10.47;;;2.70;99.90;;;;;;5045153;28;20856;-68
2023/01/20 12:17:22;;;;;;;15.43;8.73;;;3.10;99.90;;;;;;5051267;28;20252;-66
2023/01/20 12:20:05;;;;;;;12.67;8.00;;;3.00;99.90;;;;;;5059338;28;20209;-66
2023/01/20 12:22:40;;;;;;;13.23;7.73;;;2.90;99.90;;;;;;5028889;28;20224;-66
2023/01/20 12:25:19;;;;;;;16.67;7.83;;;2.90;99.90;;;;;;5058172;28;20200;-68
2023/01/20 12:27:54;;;;;;;14.37;7.53;;;2.80;99.90;;;;;;5049562;28;20287;-67
2023/01/20 12:30:42;;;;;;;13.27;7.60;;;2.80;99.90;;;;;;5051989;28;20667;-67
2023/01/20 12:33:29;;;;;;;12.80;8.00;;;2.80;99.90;;;;;;5062147;28;20208;-67
2023/01/20 12:36:24;;;;;;;17.03;8.17;;;2.70;99.90;;;;;;5053211;28;20280;-67
2023/01/20 12:39:15;;;;;;;17.23;9.30;;;2.70;99.90;;;;;;5039311;28;20299;-67
2023/01/20 12:41:59;;;;;;;18.63;10.00;;;2.70;99.90;;;;;;5047525;28;20316;-67
2023/01/20 12:44:36;;;;;;;14.63;9.17;;;2.80;99.90;;;;;;5040909;28;20211;-66
2023/01/20 12:47:12;;;;;;;15.33;9.70;;;2.80;99.90;;;;;;5050294;28;20223;-67
2023/01/20 12:50:09;;;;;;;17.67;10.23;;;2.80;99.90;;;;;;5064056;28;21220;-66
2023/01/20 12:52:48;;;;;;;23.10;11.27;;;2.80;99.90;;;;;;5031098;28;20263;-67
2023/01/20 12:55:26;;;;;;;21.20;11.33;;;2.80;99.90;;;;;;5066583;28;20851;-66
2023/01/20 12:58:11;;;;;;;17.60;11.70;;;2.70;99.90;;;;;;5032299;28;20315;-67
2023/01/20 13:00:54;;;;;;;18.60;11.03;;;2.60;99.90;;;;;;5045208;28;20291;-66
2023/01/20 13:04:04;;;;;;;20.73;11.60;;;2.50;99.90;;;;;;5036590;28;20197;-66
2023/01/20 13:06:51;;;;;;;21.13;11.70;;;2.50;99.90;;;;;;5046101;28;21902;-67
2023/01/20 13:09:36;;;;;;;20.23;11.37;;;2.60;99.90;;;;;;5029836;28;20568;-67
2023/01/20 13:12:14;;;;;;;20.40;10.87;;;2.70;99.90;;;;;;5030881;28;20326;-66
2023/01/20 13:14:44;;;;;;;20.63;11.27;;;2.70;99.90;;;;;;5039414;28;20208;-66